createdAt,value
2023-04-17T00:01:17.749Z,102368.38
2023-04-17T00:03:47.328Z,102367.53
2023-04-17T00:06:19.027Z,102359.00
2023-04-17T00:08:46.779Z,102360.19
2023-04-17T00:11:14.436Z,102361.97
2023-04-17T00:13:44.016Z,102348.75
2023-04-17T00:16:12.770Z,102366.16
2023-04-17T00:18:40.688Z,102364.59
2023-04-17T00:21:08.481Z,102360.19
2023-04-17T00:23:37.589Z,102361.91
2023-04-17T00:26:05.382Z,102360.88
2023-04-17T00:28:33.760Z,102368.13
2023-04-17T00:31:01.534Z,102363.94
2023-04-17T00:33:29.226Z,102363.94
2023-04-17T00:35:57.174Z,102361.28
2023-04-17T00:38:24.905Z,102368.28
2023-04-17T00:40:54.033Z,102366.75
2023-04-17T00:43:21.711Z,102364.25
2023-04-17T00:45:49.735Z,102369.53
2023-04-17T00:48:17.992Z,102362.56
2023-04-17T00:50:46.284Z,102374.06
2023-04-17T00:53:14.448Z,102369.81
2023-04-17T00:55:43.193Z,102364.56
2023-04-17T00:58:12.724Z,102368.03
2023-04-17T01:00:40.461Z,102364.53
2023-04-17T01:03:08.493Z,102368.16
2023-04-17T01:05:38.306Z,102369.19
2023-04-17T01:08:06.645Z,102362.28
2023-04-17T01:10:34.331Z,102364.94
2023-04-17T01:13:05.873Z,102363.06
2023-04-17T01:15:35.642Z,102361.19
2023-04-17T01:18:03.643Z,102362.03
2023-04-17T01:20:31.462Z,102363.72
2023-04-17T01:22:59.312Z,102362.88
2023-04-17T01:25:29.209Z,102365.59
2023-04-17T01:27:57.288Z,102368.34
2023-04-17T01:30:25.431Z,102376.25
2023-04-17T01:32:55.038Z,102369.19
2023-04-17T01:35:23.035Z,102368.34
2023-04-17T01:37:50.766Z,102370.13
2023-04-17T01:40:18.582Z,102373.44
2023-04-17T01:42:47.764Z,102374.25
2023-04-17T01:45:15.464Z,102376.88
2023-04-17T01:47:43.156Z,102376.94
2023-04-17T01:50:11.889Z,102380.59
2023-04-17T01:52:40.115Z,102379.84
2023-04-17T01:55:08.318Z,102392.88
2023-04-17T01:57:36.063Z,102383.25
2023-04-17T02:00:07.939Z,102389.47
2023-04-17T02:02:35.782Z,102386.81
2023-04-17T02:05:03.683Z,102385.03
2023-04-17T02:07:31.334Z,102387.78
2023-04-17T02:09:58.994Z,102392.09
2023-04-17T02:12:26.766Z,102384.19
2023-04-17T02:14:54.669Z,102384.34
2023-04-17T02:17:23.773Z,102388.09
2023-04-17T02:19:51.436Z,102395.25
2023-04-17T02:22:19.439Z,102391.13
2023-04-17T02:24:47.200Z,102397.44
2023-04-17T02:27:14.894Z,102385.09
2023-04-17T02:29:42.673Z,102387.63
2023-04-17T02:32:10.465Z,102395.56
2023-04-17T02:34:39.589Z,102389.34
2023-04-17T02:37:07.252Z,102399.69
2023-04-17T02:39:35.279Z,102391.66
2023-04-17T02:42:03.177Z,102402.06
2023-04-17T02:44:30.949Z,102392.44
2023-04-17T02:46:58.715Z,102392.66
2023-04-17T02:49:26.486Z,102385.84
2023-04-17T02:51:55.619Z,102391.97
2023-04-17T02:54:23.365Z,102393.84
2023-04-17T02:56:53.313Z,102389.34
2023-04-17T02:59:20.973Z,102399.81
2023-04-17T03:01:48.688Z,102391.13
2023-04-17T03:04:16.545Z,102385.00
2023-04-17T03:06:44.335Z,102401.59
2023-04-17T03:09:14.952Z,102398.97
2023-04-17T03:11:42.649Z,102403.22
2023-04-17T03:14:10.315Z,102404.88
2023-04-17T03:16:38.076Z,102404.88
2023-04-17T03:19:05.899Z,102408.44
2023-04-17T03:21:33.709Z,102412.09
2023-04-17T03:24:01.633Z,102403.47
2023-04-17T03:26:30.778Z,102407.91
2023-04-17T03:28:58.387Z,102413.09
2023-04-17T03:31:27.863Z,102411.41
2023-04-17T03:33:55.840Z,102405.28
2023-04-17T03:36:23.492Z,102402.47
2023-04-17T03:38:51.125Z,102406.88
2023-04-17T03:41:18.772Z,102400.59
2023-04-17T03:43:47.846Z,102397.25
2023-04-17T03:46:15.837Z,102403.94
2023-04-17T03:48:43.519Z,102417.91
2023-04-17T03:51:11.168Z,102414.50
2023-04-17T03:53:38.784Z,102403.75
2023-04-17T03:56:06.751Z,102400.25
2023-04-17T03:58:34.540Z,102409.03
2023-04-17T04:01:03.671Z,102405.63
2023-04-17T04:03:31.576Z,102403.84
2023-04-17T04:05:59.435Z,102413.47
2023-04-17T04:08:27.056Z,102406.47
2023-04-17T04:10:54.744Z,102413.47
2023-04-17T04:13:22.450Z,102403.94
2023-04-17T04:15:50.283Z,102406.75
2023-04-17T04:18:19.467Z,102411.09
2023-04-17T04:20:47.131Z,102404.09
2023-04-17T04:23:16.681Z,102409.44
2023-04-17T04:25:44.504Z,102411.22
2023-04-17T04:28:13.291Z,102410.28
2023-04-17T04:30:40.995Z,102411.09
2023-04-17T04:33:08.931Z,102413.56
2023-04-17T04:35:38.564Z,102400.84
2023-04-17T04:38:06.396Z,102418.06
2023-04-17T04:40:36.155Z,102415.53
2023-04-17T04:43:04.395Z,102417.38
2023-04-17T04:45:32.112Z,102419.06
2023-04-17T04:47:59.880Z,102419.94
2023-04-17T04:50:27.600Z,102411.09
2023-04-17T04:52:56.631Z,102418.94
2023-04-17T04:55:24.588Z,102417.13
2023-04-17T04:57:53.426Z,102423.34
2023-04-17T05:00:21.571Z,102421.56
2023-04-17T05:02:49.628Z,102426.84
2023-04-17T05:05:17.522Z,102432.91
2023-04-17T05:07:45.258Z,102428.38
2023-04-17T05:10:14.397Z,102429.22
2023-04-17T05:12:42.466Z,102428.38
2023-04-17T05:15:11.367Z,102432.13
2023-04-17T05:17:39.144Z,102440.91
2023-04-17T05:20:09.209Z,102440.06
2023-04-17T05:22:36.944Z,102433.91
2023-04-17T05:25:05.120Z,102447.88
2023-04-17T05:27:34.250Z,102446.19
2023-04-17T05:30:01.914Z,102443.63
2023-04-17T05:32:31.175Z,102460.34
2023-04-17T05:34:58.937Z,102456.13
2023-04-17T05:37:26.718Z,102455.97
2023-04-17T05:39:54.391Z,102453.34
2023-04-17T05:42:22.032Z,102461.09
2023-04-17T05:44:51.233Z,102465.31
2023-04-17T05:47:19.333Z,102463.50
2023-04-17T05:49:48.626Z,102469.66
2023-04-17T05:52:16.316Z,102464.44
2023-04-17T05:54:43.984Z,102477.56
2023-04-17T05:57:11.652Z,102472.28
2023-04-17T05:59:39.403Z,102480.22
2023-04-17T06:02:08.801Z,102487.97
2023-04-17T06:04:36.858Z,102486.25
2023-04-17T06:07:06.250Z,102482.84
2023-04-17T06:09:34.058Z,102482.00
2023-04-17T06:12:01.799Z,102485.50
2023-04-17T06:14:29.431Z,102484.56
2023-04-17T06:16:57.145Z,102491.38
2023-04-17T06:19:26.340Z,102485.94
2023-04-17T06:21:54.036Z,102485.09
2023-04-17T06:24:21.681Z,102493.69
2023-04-17T06:26:49.356Z,102490.13
2023-04-17T06:29:17.014Z,102498.69
2023-04-17T06:31:44.720Z,102502.88
2023-04-17T06:34:12.393Z,102501.00
2023-04-17T06:36:41.624Z,102502.78
2023-04-17T06:39:09.465Z,102493.84
2023-04-17T06:41:37.378Z,102510.41
2023-04-17T06:44:05.130Z,102506.75
2023-04-17T06:46:33.006Z,102512.97
2023-04-17T06:49:01.698Z,102510.22
2023-04-17T06:51:29.423Z,102520.09
2023-04-17T06:53:59.241Z,102518.38
2023-04-17T06:56:26.918Z,102520.19
2023-04-17T06:58:54.956Z,102515.91
2023-04-17T07:01:22.691Z,102509.91
2023-04-17T07:03:50.618Z,102510.53
2023-04-17T07:06:19.470Z,102517.31
2023-04-17T07:08:47.170Z,102519.00
2023-04-17T07:11:16.278Z,102518.06
2023-04-17T07:13:43.986Z,102518.69
2023-04-17T07:16:11.756Z,102530.78
2023-04-17T07:18:39.515Z,102523.72
2023-04-17T07:21:07.428Z,102524.44
2023-04-17T07:23:35.073Z,102524.44
2023-04-17T07:26:02.820Z,102539.34
2023-04-17T07:28:32.027Z,102536.38
2023-04-17T07:30:59.782Z,102530.94
2023-04-17T07:33:27.735Z,102538.63
2023-04-17T07:35:55.468Z,102546.56
2023-04-17T07:38:23.217Z,102542.03
2023-04-17T07:40:50.877Z,102543.66
2023-04-17T07:43:18.623Z,102544.31
2023-04-17T07:45:48.935Z,102542.09
2023-04-17T07:48:18.612Z,102549.00
2023-04-17T07:50:46.431Z,102555.75
2023-04-17T07:53:14.131Z,102547.59
2023-04-17T07:55:41.823Z,102544.66
2023-04-17T07:58:11.368Z,102545.47
2023-04-17T08:00:39.234Z,102549.47
2023-04-17T08:03:08.578Z,102541.28
2023-04-17T08:05:36.516Z,102538.53
2023-04-17T08:08:05.606Z,102548.19
2023-04-17T08:10:33.313Z,102552.56
2023-04-17T08:13:01.975Z,102555.13
2023-04-17T08:15:29.915Z,102544.19
2023-04-17T08:17:58.446Z,102566.53
2023-04-17T08:20:28.094Z,102563.06
2023-04-17T08:22:56.337Z,102572.09
2023-04-17T08:25:24.141Z,102569.34
2023-04-17T08:27:52.921Z,102566.69
2023-04-17T08:30:20.676Z,102565.84
2023-04-17T08:32:50.211Z,102559.56
2023-04-17T08:35:18.177Z,102566.38
2023-04-17T08:37:47.632Z,102566.03
2023-04-17T08:40:17.053Z,102569.28
2023-04-17T08:42:47.632Z,102563.81
2023-04-17T08:45:16.534Z,102568.97
2023-04-17T08:47:44.824Z,102563.28
2023-04-17T08:50:14.249Z,102556.81
2023-04-17T08:52:43.426Z,102555.63
2023-04-17T08:55:15.203Z,102569.25
2023-04-17T08:57:56.789Z,102569.06
2023-04-17T09:00:28.517Z,102563.69
2023-04-17T09:02:57.769Z,102569.69
2023-04-17T09:05:26.507Z,102573.00
2023-04-17T09:08:08.172Z,102571.13
2023-04-17T09:10:38.210Z,102569.13
2023-04-17T09:13:06.275Z,102570.00
2023-04-17T09:15:34.568Z,102571.78
2023-04-17T09:18:02.367Z,102571.63
2023-04-17T09:20:30.335Z,102566.25
2023-04-17T09:23:02.852Z,102576.53
2023-04-17T09:25:31.093Z,102571.75
2023-04-17T09:28:11.572Z,102570.72
2023-04-17T09:30:40.008Z,102572.25
2023-04-17T09:33:08.768Z,102571.94
2023-04-17T09:35:40.094Z,102579.69
2023-04-17T09:38:08.280Z,102569.00
2023-04-17T09:40:39.916Z,102578.56
2023-04-17T09:43:10.889Z,102581.13
2023-04-17T09:45:42.487Z,102574.69
2023-04-17T09:48:12.020Z,102576.31
2023-04-17T09:50:40.379Z,102578.03
2023-04-17T09:53:09.244Z,102583.22
2023-04-17T09:55:38.160Z,102584.94
2023-04-17T09:58:07.436Z,102570.72
2023-04-17T10:00:37.884Z,102585.50
2023-04-17T10:03:05.864Z,102579.94
2023-04-17T10:05:33.776Z,102575.19
2023-04-17T10:08:01.936Z,102586.50
2023-04-17T10:10:33.309Z,102579.19
2023-04-17T10:13:02.511Z,102581.47
2023-04-17T10:15:30.859Z,102583.75
2023-04-17T10:18:20.086Z,102585.16
2023-04-17T10:20:48.503Z,102578.47
2023-04-17T10:23:31.161Z,102575.34
2023-04-17T10:26:41.128Z,102573.22
2023-04-17T10:29:08.895Z,102580.91
2023-04-17T10:32:17.087Z,102572.00
2023-04-17T10:34:46.235Z,102573.81
2023-04-17T10:37:15.518Z,102565.00
2023-04-17T10:39:59.127Z,102571.06
2023-04-17T10:42:27.950Z,102577.41
2023-04-17T10:44:58.845Z,102575.78
2023-04-17T10:47:32.434Z,102561.59
2023-04-17T10:50:03.976Z,102567.44
2023-04-17T10:52:43.499Z,102554.97
2023-04-17T10:55:14.326Z,102557.31
2023-04-17T10:58:03.593Z,102566.78
2023-04-17T11:00:33.833Z,102560.63
2023-04-17T11:03:02.295Z,102561.38
2023-04-17T11:05:32.440Z,102560.69
2023-04-17T11:08:00.218Z,102564.41
2023-04-17T11:10:28.235Z,102565.38
2023-04-17T11:12:56.731Z,102553.06
2023-04-17T11:15:28.799Z,102548.69
2023-04-17T11:17:57.865Z,102552.31
2023-04-17T11:20:26.657Z,102562.91
2023-04-17T11:22:56.187Z,102565.63
2023-04-17T11:25:25.100Z,102551.34
2023-04-17T11:27:53.764Z,102549.91
2023-04-17T11:30:28.895Z,102553.03
2023-04-17T11:32:58.768Z,102546.03
2023-04-17T11:35:30.512Z,102547.72
2023-04-17T11:38:12.125Z,102552.81
2023-04-17T11:40:46.904Z,102550.28
2023-04-17T11:43:14.717Z,102549.97
2023-04-17T11:45:44.099Z,102537.56
2023-04-17T11:48:12.940Z,102543.13
2023-04-17T11:50:42.182Z,102543.69
2023-04-17T11:53:14.319Z,102540.75
2023-04-17T11:55:42.026Z,102533.25
2023-04-17T11:58:11.248Z,102537.31
2023-04-17T12:00:40.715Z,102532.63
2023-04-17T12:03:34.635Z,102532.00
2023-04-17T12:06:04.190Z,102531.41
2023-04-17T12:08:44.013Z,102530.47
2023-04-17T12:11:17.931Z,102529.34
2023-04-17T12:13:46.047Z,102529.25
2023-04-17T12:16:13.779Z,102529.56
2023-04-17T12:18:41.591Z,102533.19
2023-04-17T12:21:09.384Z,102533.41
2023-04-17T12:23:38.390Z,102526.50
2023-04-17T12:26:06.162Z,102518.94
2023-04-17T12:28:33.908Z,102532.53
2023-04-17T12:31:01.731Z,102533.94
2023-04-17T12:33:29.654Z,102524.91
2023-04-17T12:35:57.683Z,102525.53
2023-04-17T12:38:25.509Z,102523.84
2023-04-17T12:40:54.622Z,102520.09
2023-04-17T12:43:22.366Z,102520.84
2023-04-17T12:45:50.448Z,102517.34
2023-04-17T12:48:18.221Z,102524.69
2023-04-17T12:50:45.923Z,102522.25
2023-04-17T12:53:16.132Z,102527.25
2023-04-17T12:55:44.638Z,102521.41
2023-04-17T12:58:14.447Z,102521.06
2023-04-17T13:00:43.478Z,102524.16
2023-04-17T13:03:12.311Z,102521.72
2023-04-17T13:05:40.566Z,102517.47
2023-04-17T13:08:12.497Z,102522.03
2023-04-17T13:10:40.386Z,102505.34
2023-04-17T13:13:08.305Z,102503.94
2023-04-17T13:15:37.601Z,102509.00
2023-04-17T13:18:05.778Z,102501.59
2023-04-17T13:20:33.527Z,102493.22
2023-04-17T13:23:01.524Z,102507.66
2023-04-17T13:25:30.362Z,102505.31
2023-04-17T13:27:58.654Z,102497.34
2023-04-17T13:30:26.349Z,102494.41
2023-04-17T13:32:55.446Z,102498.91
2023-04-17T13:35:23.215Z,102503.78
2023-04-17T13:37:50.966Z,102496.25
2023-04-17T13:40:18.751Z,102498.16
2023-04-17T13:42:46.464Z,102487.38
2023-04-17T13:45:14.239Z,102486.91
2023-04-17T13:47:41.866Z,102479.25
2023-04-17T13:50:11.509Z,102477.53
2023-04-17T13:52:39.273Z,102476.59
2023-04-17T13:55:11.883Z,102476.44
2023-04-17T13:57:39.741Z,102466.56
2023-04-17T14:00:10.732Z,102483.41
2023-04-17T14:02:38.690Z,102460.34
2023-04-17T14:05:07.582Z,102465.63
2023-04-17T14:07:36.720Z,102465.41
2023-04-17T14:10:04.770Z,102459.03
2023-04-17T14:12:32.534Z,102456.16
2023-04-17T14:15:00.218Z,102455.31
2023-04-17T14:17:27.964Z,102451.72
2023-04-17T14:19:55.750Z,102443.72
2023-04-17T14:22:23.432Z,102444.69
2023-04-17T14:24:52.633Z,102444.94
2023-04-17T14:27:20.361Z,102437.88
2023-04-17T14:29:48.082Z,102448.50
2023-04-17T14:32:15.782Z,102447.06
2023-04-17T14:34:43.722Z,102442.66
2023-04-17T14:37:13.638Z,102448.78
2023-04-17T14:39:43.260Z,102441.38
2023-04-17T14:42:12.333Z,102437.09
2023-04-17T14:44:40.082Z,102446.44
2023-04-17T14:47:08.520Z,102437.03
2023-04-17T14:49:36.275Z,102432.72
2023-04-17T14:52:03.920Z,102417.75
2023-04-17T14:54:31.651Z,102422.72
2023-04-17T14:56:59.299Z,102419.72
2023-04-17T14:59:28.957Z,102421.19
2023-04-17T15:01:56.778Z,102421.19
2023-04-17T15:04:24.633Z,102422.72
2023-04-17T15:06:52.477Z,102425.88
2023-04-17T15:09:20.174Z,102422.69
2023-04-17T15:11:47.928Z,102415.16
2023-04-17T15:14:15.681Z,102418.94
2023-04-17T15:16:44.812Z,102415.81
2023-04-17T15:19:12.746Z,102415.34
2023-04-17T15:21:40.565Z,102404.66
2023-04-17T15:24:08.477Z,102407.34
2023-04-17T15:26:36.169Z,102406.38
2023-04-17T15:29:04.077Z,102404.81
2023-04-17T15:31:31.769Z,102401.75
2023-04-17T15:34:00.818Z,102395.44
2023-04-17T15:36:31.517Z,102394.34
2023-04-17T15:38:59.204Z,102388.91
2023-04-17T15:41:26.900Z,102393.75
2023-04-17T15:43:54.579Z,102384.88
2023-04-17T15:46:22.684Z,102395.56
2023-04-17T15:49:05.002Z,102390.31
2023-04-17T15:51:39.014Z,102396.75
2023-04-17T15:54:07.995Z,102392.41
2023-04-17T15:56:35.671Z,102386.22
2023-04-17T15:59:03.437Z,102388.41
2023-04-17T16:01:31.299Z,102384.75
2023-04-17T16:04:40.165Z,102384.75
2023-04-17T16:07:07.906Z,102382.09
2023-04-17T16:09:35.641Z,102390.22
2023-04-17T16:12:05.499Z,102387.78
2023-04-17T16:14:33.205Z,102383.28
2023-04-17T16:17:01.170Z,102392.28
2023-04-17T16:19:28.822Z,102386.22
2023-04-17T16:21:57.888Z,102394.94
2023-04-17T16:24:26.122Z,102385.38
2023-04-17T16:26:57.493Z,102387.69
2023-04-17T16:29:25.275Z,102385.88
2023-04-17T16:31:53.146Z,102392.66
2023-04-17T16:34:21.508Z,102387.44
2023-04-17T16:36:49.543Z,102394.97
2023-04-17T16:39:18.639Z,102381.50
2023-04-17T16:41:46.475Z,102385.72
2023-04-17T16:44:14.362Z,102385.50
2023-04-17T16:47:03.160Z,102389.16
2023-04-17T16:49:29.751Z,102389.63
2023-04-17T16:51:57.635Z,102403.72
2023-04-17T16:54:26.726Z,102388.91
2023-04-17T16:56:54.424Z,102396.19
2023-04-17T16:59:22.151Z,102388.19
2023-04-17T17:01:50.647Z,102391.94
2023-04-17T17:04:18.463Z,102392.78
2023-04-17T17:06:46.186Z,102389.88
2023-04-17T17:09:14.045Z,102394.50
2023-04-17T17:11:43.219Z,102398.38
2023-04-17T17:14:10.876Z,102396.81
2023-04-17T17:16:38.732Z,102394.34
2023-04-17T17:19:06.446Z,102388.44
2023-04-17T17:21:34.293Z,102393.78
2023-04-17T17:24:01.988Z,102400.78
2023-04-17T17:26:29.720Z,102402.63
2023-04-17T17:28:58.738Z,102390.84
2023-04-17T17:31:26.393Z,102400.06
2023-04-17T17:33:54.974Z,102405.63
2023-04-17T17:36:22.721Z,102397.38
2023-04-17T17:38:55.726Z,102399.81
2023-04-17T17:41:23.705Z,102401.75
2023-04-17T17:43:51.425Z,102401.97
2023-04-17T17:46:21.502Z,102404.75
2023-04-17T17:48:49.251Z,102409.44
2023-04-17T17:51:16.910Z,102403.66
2023-04-17T17:53:44.571Z,102402.94
2023-04-17T17:56:14.791Z,102404.00
2023-04-17T17:58:48.894Z,102407.72
2023-04-17T18:01:17.308Z,102405.25
2023-04-17T18:03:48.935Z,102397.84
2023-04-17T18:06:17.356Z,102403.56
2023-04-17T18:08:45.047Z,102406.44
2023-04-17T18:11:13.852Z,102404.75
2023-04-17T18:13:41.669Z,102414.66
2023-04-17T18:16:09.515Z,102407.13
2023-04-17T18:18:39.711Z,102412.69
2023-04-17T18:21:12.408Z,102418.47
2023-04-17T18:23:40.789Z,102416.06
2023-04-17T18:26:10.522Z,102429.56
2023-04-17T18:28:39.039Z,102414.06
2023-04-17T18:31:06.985Z,102420.59
2023-04-17T18:33:34.950Z,102422.72
2023-04-17T18:36:03.496Z,102428.41
2023-04-17T18:38:33.054Z,102429.47
2023-04-17T18:41:02.838Z,102425.34
2023-04-17T18:43:32.709Z,102428.44
2023-04-17T18:46:04.176Z,102430.50
2023-04-17T18:48:32.059Z,102433.47
2023-04-17T18:51:00.161Z,102427.63
2023-04-17T18:53:27.843Z,102432.44
2023-04-17T18:55:57.904Z,102437.13
2023-04-17T18:58:27.598Z,102446.28
2023-04-17T19:00:55.473Z,102441.25
2023-04-17T19:03:23.323Z,102441.50
2023-04-17T19:05:52.997Z,102445.19
2023-04-17T19:08:22.712Z,102443.84
2023-04-17T19:10:50.466Z,102442.34
2023-04-17T19:13:21.311Z,102453.22
2023-04-17T19:15:51.154Z,102449.06
2023-04-17T19:18:18.993Z,102444.06
2023-04-17T19:20:47.870Z,102451.72
2023-04-17T19:23:15.562Z,102450.00
2023-04-17T19:25:43.420Z,102459.19
2023-04-17T19:28:11.400Z,102462.13
2023-04-17T19:30:40.847Z,102458.09
2023-04-17T19:33:08.794Z,102465.31
2023-04-17T19:35:36.577Z,102461.06
2023-04-17T19:38:04.292Z,102455.94
2023-04-17T19:40:32.165Z,102461.25
2023-04-17T19:43:01.391Z,102462.22
2023-04-17T19:45:29.391Z,102465.34
2023-04-17T19:47:58.516Z,102468.91
2023-04-17T19:50:27.468Z,102469.34
2023-04-17T19:52:55.891Z,102478.47
2023-04-17T19:55:23.730Z,102476.03
2023-04-17T19:57:52.219Z,102491.19
2023-04-17T20:00:20.719Z,102484.41
2023-04-17T20:02:48.540Z,102486.34
2023-04-17T20:05:18.468Z,102490.69
2023-04-17T20:07:46.135Z,102487.06
2023-04-17T20:10:13.869Z,102488.03
2023-04-17T20:12:41.594Z,102485.03
2023-04-17T20:15:10.684Z,102486.91
2023-04-17T20:17:38.482Z,102493.06
2023-04-17T20:20:07.610Z,102484.47
2023-04-17T20:22:36.682Z,102489.03
2023-04-17T20:25:04.765Z,102482.44
2023-04-17T20:27:32.432Z,102487.75
2023-04-17T20:30:00.217Z,102490.41
2023-04-17T20:32:27.883Z,102484.53
2023-04-17T20:34:55.764Z,102489.66
2023-04-17T20:37:23.970Z,102486.22
2023-04-17T20:39:53.090Z,102493.44
2023-04-17T20:42:20.818Z,102488.13
2023-04-17T20:44:48.446Z,102483.88
2023-04-17T20:47:16.206Z,102491.91
2023-04-17T20:49:43.937Z,102487.66
2023-04-17T20:52:11.599Z,102484.16
2023-04-17T20:54:39.295Z,102495.84
2023-04-17T20:57:08.339Z,102496.13
2023-04-17T20:59:37.210Z,102493.00
2023-04-17T21:02:05.038Z,102495.03
2023-04-17T21:04:33.008Z,102497.09
2023-04-17T21:07:01.018Z,102492.97
2023-04-17T21:09:28.792Z,102495.69
2023-04-17T21:11:56.524Z,102508.97
2023-04-17T21:14:25.853Z,102498.75
2023-04-17T21:16:56.422Z,102505.09
2023-04-17T21:19:25.987Z,102508.16
2023-04-17T21:21:53.732Z,102502.47
2023-04-17T21:24:21.851Z,102504.19
2023-04-17T21:26:49.520Z,102497.56
2023-04-17T21:29:17.325Z,102499.84
2023-04-17T21:31:46.581Z,102516.78
2023-04-17T21:34:14.440Z,102523.97
2023-04-17T21:36:42.377Z,102519.91
2023-04-17T21:39:10.106Z,102528.16
2023-04-17T21:41:38.298Z,102531.06
2023-04-17T21:44:06.068Z,102535.91
2023-04-17T21:46:33.731Z,102533.72
2023-04-17T21:49:02.756Z,102532.97
2023-04-17T21:51:31.490Z,102536.72
2023-04-17T21:53:59.250Z,102538.72
2023-04-17T21:56:28.252Z,102535.47
2023-04-17T21:58:58.192Z,102538.75
2023-04-17T22:01:25.984Z,102537.56
2023-04-17T22:03:56.857Z,102547.66
2023-04-17T22:06:31.420Z,102533.22
2023-04-17T22:08:59.245Z,102547.91
2023-04-17T22:11:29.442Z,102564.50
2023-04-17T22:13:57.295Z,102537.75
2023-04-17T22:16:25.020Z,102537.19
2023-04-17T22:18:52.953Z,102547.19
2023-04-17T22:21:58.719Z,102554.44
2023-04-17T22:24:44.970Z,102528.28
2023-04-17T22:27:49.124Z,102555.25
2023-04-17T22:30:34.140Z,102555.63
2023-04-17T22:33:20.385Z,102556.13
2023-04-17T22:35:48.097Z,102549.28
2023-04-17T22:38:35.864Z,102558.19
2023-04-17T22:41:21.544Z,102552.19
2023-04-17T22:44:07.801Z,102556.63
2023-04-17T22:47:30.542Z,102559.38
2023-04-17T22:50:17.879Z,102556.06
2023-04-17T22:53:21.585Z,102566.03
2023-04-17T22:56:26.505Z,102565.69
2023-04-17T22:59:49.327Z,102563.63
2023-04-17T23:02:36.880Z,102563.19
2023-04-17T23:05:23.267Z,102568.66
2023-04-17T23:07:51.180Z,102564.41
2023-04-17T23:10:19.071Z,102566.19
2023-04-17T23:12:46.864Z,102562.94
2023-04-17T23:15:14.690Z,102565.56
2023-04-17T23:17:43.785Z,102563.97
2023-04-17T23:20:12.857Z,102563.06
2023-04-17T23:22:40.627Z,102572.97
2023-04-17T23:25:09.294Z,102565.47
2023-04-17T23:27:37.087Z,102573.84
2023-04-17T23:30:05.373Z,102571.34
2023-04-17T23:32:33.036Z,102567.94
2023-04-17T23:35:02.171Z,102569.91
2023-04-17T23:37:30.032Z,102562.97
2023-04-17T23:39:57.822Z,102583.13
2023-04-17T23:42:25.639Z,102573.53
2023-04-17T23:44:53.376Z,102570.00
2023-04-17T23:47:21.171Z,102573.53
2023-04-17T23:49:48.850Z,102570.13
2023-04-17T23:52:18.949Z,102566.88
2023-04-17T23:54:46.567Z,102565.50
2023-04-17T23:57:14.175Z,102569.22
2023-04-17T23:59:42.044Z,102567.53
